createdAt,value
2023-02-06T00:01:28.501Z,13.90
2023-02-06T00:03:55.259Z,15.60
2023-02-06T00:06:26.546Z,14.90
2023-02-06T00:08:55.730Z,12.95
2023-02-06T00:11:22.859Z,13.70
2023-02-06T00:13:52.176Z,12.43
2023-02-06T00:16:19.852Z,13.88
2023-02-06T00:18:47.198Z,13.63
2023-02-06T00:21:14.361Z,12.77
2023-02-06T00:23:43.760Z,14.85
2023-02-06T00:26:12.541Z,14.13
2023-02-06T00:28:39.196Z,12.68
2023-02-06T00:31:07.159Z,14.00
2023-02-06T00:33:36.799Z,13.90
2023-02-06T00:36:06.355Z,15.50
2023-02-06T00:38:37.289Z,14.23
2023-02-06T00:41:04.169Z,13.27
2023-02-06T00:43:30.935Z,16.25
2023-02-06T00:46:00.152Z,15.32
2023-02-06T00:48:27.063Z,14.77
2023-02-06T00:50:54.159Z,14.40
2023-02-06T00:53:23.767Z,16.10
2023-02-06T00:55:52.755Z,18.63
2023-02-06T00:58:19.553Z,16.15
2023-02-06T01:00:46.239Z,15.77
2023-02-06T01:03:15.326Z,16.88
2023-02-06T01:05:44.432Z,19.27
2023-02-06T01:08:11.606Z,17.08
2023-02-06T01:10:41.728Z,18.25
2023-02-06T01:13:08.899Z,15.00
2023-02-06T01:15:36.576Z,14.65
2023-02-06T01:18:04.013Z,14.63
2023-02-06T01:20:31.182Z,14.57
2023-02-06T01:22:57.875Z,15.65
2023-02-06T01:25:24.737Z,14.98
2023-02-06T01:27:51.436Z,13.15
2023-02-06T01:30:18.272Z,13.35
2023-02-06T01:32:44.959Z,14.85
2023-02-06T01:35:12.136Z,12.85
2023-02-06T01:37:39.815Z,14.45
2023-02-06T01:40:09.051Z,14.90
2023-02-06T01:42:37.634Z,13.55
2023-02-06T01:45:26.044Z,13.38
2023-02-06T01:48:01.153Z,13.93
2023-02-06T01:50:31.845Z,13.00
2023-02-06T01:52:58.757Z,12.88
2023-02-06T01:55:25.651Z,13.00
2023-02-06T01:57:52.413Z,11.48
2023-02-06T02:00:19.716Z,12.02
2023-02-06T02:02:48.989Z,11.23
2023-02-06T02:05:19.954Z,10.23
2023-02-06T02:07:54.920Z,11.50
2023-02-06T02:10:23.841Z,12.85
2023-02-06T02:12:50.474Z,10.45
2023-02-06T02:15:20.020Z,10.70
2023-02-06T02:17:56.188Z,11.80
2023-02-06T02:20:44.694Z,10.40
2023-02-06T02:23:43.911Z,12.02
2023-02-06T02:26:32.425Z,12.40
2023-02-06T02:29:25.852Z,13.55
2023-02-06T02:32:30.395Z,13.10
2023-02-06T02:35:24.492Z,14.93
2023-02-06T02:38:01.601Z,13.43
2023-02-06T02:40:46.654Z,15.43
2023-02-06T02:43:22.050Z,14.68
2023-02-06T02:45:53.570Z,12.57
2023-02-06T02:48:35.204Z,16.55
2023-02-06T02:51:02.311Z,14.30
2023-02-06T02:53:29.019Z,15.15
2023-02-06T02:55:55.743Z,14.77
2023-02-06T02:58:32.614Z,16.05
2023-02-06T03:01:05.932Z,15.02
2023-02-06T03:03:35.767Z,15.45
2023-02-06T03:06:32.027Z,17.25
2023-02-06T03:09:16.204Z,17.42
2023-02-06T03:11:50.763Z,15.15
2023-02-06T03:14:34.261Z,15.73
2023-02-06T03:17:10.949Z,19.40
2023-02-06T03:19:45.824Z,16.73
2023-02-06T03:22:13.542Z,17.42
2023-02-06T03:24:40.488Z,16.60
2023-02-06T03:27:13.784Z,18.67
2023-02-06T03:29:42.416Z,16.55
2023-02-06T03:32:13.804Z,17.92
2023-02-06T03:34:50.959Z,15.95
2023-02-06T03:37:17.752Z,16.77
2023-02-06T03:39:44.640Z,16.58
2023-02-06T03:42:13.392Z,15.25
2023-02-06T03:44:49.410Z,16.98
2023-02-06T03:47:18.396Z,16.25
2023-02-06T03:49:47.072Z,16.35
2023-02-06T03:52:19.448Z,15.25
2023-02-06T03:54:52.707Z,16.42
2023-02-06T03:57:22.935Z,16.38
2023-02-06T03:59:50.092Z,17.45
2023-02-06T04:02:17.886Z,16.58
2023-02-06T04:04:45.635Z,16.88
2023-02-06T04:07:25.681Z,15.80
2023-02-06T04:09:56.929Z,18.73
2023-02-06T04:12:24.253Z,15.43
2023-02-06T04:14:51.666Z,17.58
2023-02-06T04:17:38.452Z,17.40
2023-02-06T04:20:08.158Z,17.13
2023-02-06T04:22:35.034Z,17.80
2023-02-06T04:25:01.946Z,15.65
2023-02-06T04:27:28.685Z,17.85
2023-02-06T04:29:55.292Z,15.45
2023-02-06T04:32:22.048Z,16.38
2023-02-06T04:34:48.772Z,16.02
2023-02-06T04:37:17.772Z,16.00
2023-02-06T04:39:44.533Z,17.45
2023-02-06T04:42:11.254Z,20.27
2023-02-06T04:44:38.519Z,17.35
2023-02-06T04:47:07.738Z,16.88
2023-02-06T04:49:34.388Z,19.15
2023-02-06T04:52:01.015Z,15.52
2023-02-06T04:54:32.435Z,17.35
2023-02-06T04:56:59.420Z,18.17
2023-02-06T04:59:26.209Z,15.40
2023-02-06T05:01:55.060Z,16.33
2023-02-06T05:04:23.944Z,16.48
2023-02-06T05:06:52.909Z,17.85
2023-02-06T05:09:19.571Z,16.45
2023-02-06T05:11:46.190Z,18.58
2023-02-06T05:14:12.871Z,18.83
2023-02-06T05:16:42.099Z,19.65
2023-02-06T05:19:08.721Z,18.65
2023-02-06T05:21:35.343Z,17.83
2023-02-06T05:24:02.108Z,17.45
2023-02-06T05:26:30.884Z,18.60
2023-02-06T05:28:57.508Z,18.38
2023-02-06T05:31:24.350Z,17.20
2023-02-06T05:33:53.552Z,18.98
2023-02-06T05:36:23.040Z,17.83
2023-02-06T05:38:50.277Z,17.20
2023-02-06T05:41:17.595Z,18.52
2023-02-06T05:43:46.609Z,17.92
2023-02-06T05:46:15.836Z,16.63
2023-02-06T05:48:42.610Z,19.17
2023-02-06T05:51:09.408Z,16.05
2023-02-06T05:53:36.258Z,17.55
2023-02-06T05:56:03.000Z,15.48
2023-02-06T05:58:29.682Z,16.70
2023-02-06T06:00:58.727Z,20.15
2023-02-06T06:03:33.090Z,14.20
2023-02-06T06:06:00.483Z,16.48
2023-02-06T06:08:27.148Z,14.82
2023-02-06T06:10:53.821Z,15.05
2023-02-06T06:13:23.143Z,17.23
2023-02-06T06:15:51.682Z,19.38
2023-02-06T06:18:20.006Z,16.55
2023-02-06T06:20:49.880Z,20.27
2023-02-06T06:23:19.284Z,15.63
2023-02-06T06:25:49.227Z,17.40
2023-02-06T06:28:16.362Z,19.77
2023-02-06T06:30:43.212Z,19.48
2023-02-06T06:33:10.215Z,16.20
2023-02-06T06:35:37.591Z,17.67
2023-02-06T06:38:04.381Z,18.65
2023-02-06T06:40:31.115Z,20.92
2023-02-06T06:42:57.735Z,18.23
2023-02-06T06:45:24.451Z,18.20
2023-02-06T06:47:51.206Z,20.67
2023-02-06T06:50:20.347Z,18.02
2023-02-06T06:52:46.982Z,21.25
2023-02-06T06:55:13.698Z,22.95
2023-02-06T06:57:40.353Z,21.65
2023-02-06T07:00:08.950Z,18.80
2023-02-06T07:02:35.564Z,20.50
2023-02-06T07:05:02.387Z,21.80
2023-02-06T07:07:31.589Z,16.75
2023-02-06T07:09:59.657Z,16.27
2023-02-06T07:12:29.667Z,18.05
2023-02-06T07:14:56.321Z,14.40
2023-02-06T07:17:23.116Z,19.55
2023-02-06T07:19:52.589Z,19.70
2023-02-06T07:22:20.064Z,19.55
2023-02-06T07:24:46.841Z,20.23
2023-02-06T07:27:16.145Z,18.23
2023-02-06T07:29:45.108Z,18.52
2023-02-06T07:32:14.103Z,24.08
2023-02-06T07:34:40.814Z,22.63
2023-02-06T07:37:07.443Z,24.70
2023-02-06T07:39:34.145Z,24.77
2023-02-06T07:42:02.353Z,20.80
2023-02-06T07:44:31.518Z,19.75
2023-02-06T07:46:58.673Z,20.10
2023-02-06T07:49:27.664Z,18.80
2023-02-06T07:51:56.878Z,21.80
2023-02-06T07:54:26.032Z,18.67
2023-02-06T07:56:55.192Z,21.75
2023-02-06T07:59:21.813Z,19.67
2023-02-06T08:01:51.315Z,24.00
2023-02-06T08:04:18.063Z,19.58
2023-02-06T08:06:44.979Z,21.23
2023-02-06T08:09:17.044Z,21.95
2023-02-06T08:11:44.174Z,20.92
2023-02-06T08:14:11.752Z,18.25
2023-02-06T08:16:39.356Z,17.67
2023-02-06T08:19:10.697Z,15.05
2023-02-06T08:21:37.648Z,16.98
2023-02-06T08:24:07.149Z,17.35
2023-02-06T08:26:33.952Z,20.65
2023-02-06T08:29:03.909Z,18.10
2023-02-06T08:31:36.298Z,18.95
2023-02-06T08:34:03.649Z,14.48
2023-02-06T08:36:34.046Z,19.80
2023-02-06T08:39:01.814Z,25.35
2023-02-06T08:41:32.951Z,16.10
2023-02-06T08:44:02.121Z,17.15
2023-02-06T08:46:35.629Z,16.70
2023-02-06T08:49:07.444Z,18.27
2023-02-06T08:51:35.508Z,13.88
2023-02-06T08:54:07.022Z,17.13
2023-02-06T08:56:35.481Z,17.83
2023-02-06T08:59:02.916Z,16.25
2023-02-06T09:01:31.749Z,22.90
2023-02-06T09:04:01.551Z,18.23
2023-02-06T09:06:29.230Z,20.85
2023-02-06T09:08:58.849Z,19.02
2023-02-06T09:11:26.617Z,14.48
2023-02-06T09:13:56.350Z,15.63
2023-02-06T09:16:24.397Z,14.95
2023-02-06T09:18:54.241Z,17.52
2023-02-06T09:21:23.709Z,15.00
2023-02-06T09:23:53.156Z,14.02
2023-02-06T09:26:23.624Z,14.65
2023-02-06T09:29:02.965Z,15.60
2023-02-06T09:31:31.266Z,15.23
2023-02-06T09:34:00.282Z,13.75
2023-02-06T09:36:30.093Z,18.75
2023-02-06T09:38:58.157Z,14.82
2023-02-06T09:41:29.527Z,16.33
2023-02-06T09:44:12.484Z,14.45
2023-02-06T09:47:10.926Z,15.23
2023-02-06T09:49:47.833Z,15.18
2023-02-06T09:52:41.549Z,17.60
2023-02-06T09:55:14.190Z,19.17
2023-02-06T09:58:15.941Z,16.55
2023-02-06T10:01:19.311Z,33.30
2023-02-06T10:04:10.207Z,17.77
2023-02-06T10:06:53.700Z,14.05
2023-02-06T10:09:39.382Z,14.63
2023-02-06T10:12:17.983Z,17.95
2023-02-06T10:14:53.111Z,13.90
2023-02-06T10:17:25.259Z,20.95
2023-02-06T10:20:07.424Z,21.60
2023-02-06T10:22:44.065Z,17.38
2023-02-06T10:25:22.134Z,18.58
2023-02-06T10:27:56.529Z,22.15
2023-02-06T10:30:38.255Z,19.95
2023-02-06T10:33:45.110Z,18.17
2023-02-06T10:36:34.852Z,19.75
2023-02-06T10:39:33.699Z,19.60
2023-02-06T10:42:17.426Z,20.70
2023-02-06T10:45:21.873Z,15.77
2023-02-06T10:50:43.116Z,18.35
2023-02-06T10:53:50.901Z,19.27
2023-02-06T10:56:22.724Z,20.45
2023-02-06T10:59:10.601Z,19.75
2023-02-06T11:01:40.744Z,17.73
2023-02-06T11:04:49.327Z,20.08
2023-02-06T11:07:38.056Z,16.13
2023-02-06T11:10:06.033Z,14.93
2023-02-06T11:12:42.355Z,11.63
2023-02-06T11:15:38.825Z,16.15
2023-02-06T11:18:14.224Z,13.48
2023-02-06T11:20:43.558Z,12.05
2023-02-06T11:23:23.309Z,10.27
2023-02-06T11:26:18.874Z,12.20
2023-02-06T11:29:01.801Z,9.88
2023-02-06T11:31:59.280Z,10.25
2023-02-06T11:34:28.053Z,10.32
2023-02-06T11:37:06.565Z,8.98
2023-02-06T11:39:36.096Z,7.75
2023-02-06T11:42:06.741Z,15.80
2023-02-06T11:44:41.538Z,15.30
2023-02-06T11:47:38.266Z,12.55
2023-02-06T11:50:20.108Z,14.73
2023-02-06T11:52:47.254Z,18.02
2023-02-06T11:55:30.042Z,42.15
2023-02-06T11:58:11.747Z,12.77
2023-02-06T12:01:01.318Z,12.98
2023-02-06T12:03:47.211Z,15.32
2023-02-06T12:06:33.873Z,10.52
2023-02-06T12:09:03.268Z,18.83
2023-02-06T12:11:50.138Z,8.23
2023-02-06T12:14:31.819Z,29.05
2023-02-06T12:17:01.868Z,13.25
2023-02-06T12:19:40.361Z,8.63
2023-02-06T12:22:26.774Z,13.88
2023-02-06T12:25:00.121Z,11.18
2023-02-06T12:27:39.155Z,24.25
2023-02-06T12:30:09.033Z,8.52
2023-02-06T12:32:42.017Z,10.50
2023-02-06T12:35:36.551Z,16.90
2023-02-06T12:38:13.146Z,22.05
2023-02-06T12:41:02.937Z,15.95
2023-02-06T12:43:35.125Z,10.07
2023-02-06T12:46:13.590Z,8.40
2023-02-06T12:48:52.240Z,18.58
2023-02-06T12:51:36.827Z,8.48
2023-02-06T12:54:21.877Z,8.07
2023-02-06T12:57:22.110Z,9.57
2023-02-06T13:00:31.102Z,14.02
2023-02-06T13:03:03.979Z,8.13
2023-02-06T13:05:41.177Z,9.10
2023-02-06T13:08:14.626Z,8.45
2023-02-06T13:10:42.290Z,7.13
2023-02-06T13:13:26.846Z,6.75
2023-02-06T13:15:55.317Z,10.25
2023-02-06T13:18:44.537Z,14.15
2023-02-06T13:21:28.750Z,11.15
2023-02-06T13:24:15.900Z,7.40
2023-02-06T13:26:51.597Z,9.80
2023-02-06T13:29:30.387Z,5.50
2023-02-06T13:32:12.501Z,9.45
2023-02-06T13:34:47.870Z,10.07
2023-02-06T13:37:41.406Z,12.00
2023-02-06T13:40:35.345Z,7.40
2023-02-06T13:43:10.694Z,10.63
2023-02-06T13:45:53.223Z,7.30
2023-02-06T13:48:54.206Z,10.07
2023-02-06T13:51:35.925Z,11.52
2023-02-06T13:54:32.245Z,13.27
2023-02-06T13:57:26.055Z,10.93
2023-02-06T14:00:00.223Z,10.45
2023-02-06T14:02:49.897Z,7.82
2023-02-06T14:05:23.431Z,12.40
2023-02-06T14:07:57.662Z,8.63
2023-02-06T14:11:14.470Z,7.25
2023-02-06T14:13:52.660Z,8.98
2023-02-06T14:16:49.450Z,5.65
2023-02-06T14:19:41.714Z,5.22
2023-02-06T14:22:38.745Z,3.63
2023-02-06T14:26:02.783Z,5.65
2023-02-06T14:29:05.379Z,5.70
2023-02-06T14:32:03.252Z,11.20
2023-02-06T14:34:49.420Z,5.65
2023-02-06T14:37:36.324Z,11.38
2023-02-06T14:40:10.761Z,5.65
2023-02-06T14:42:45.405Z,12.40
2023-02-06T14:45:31.920Z,7.35
2023-02-06T14:48:04.424Z,6.05
2023-02-06T14:50:42.384Z,14.40
2023-02-06T14:53:14.893Z,14.27
2023-02-06T14:55:45.022Z,15.43
2023-02-06T14:58:27.243Z,7.13
2023-02-06T15:01:10.759Z,11.55
2023-02-06T15:03:39.965Z,6.53
2023-02-06T15:06:28.471Z,7.22
2023-02-06T15:08:55.438Z,7.75
2023-02-06T15:11:32.339Z,6.68
2023-02-06T15:14:02.852Z,3.97
2023-02-06T15:16:30.460Z,7.13
2023-02-06T15:19:20.702Z,4.78
2023-02-06T15:21:54.227Z,8.52
2023-02-06T15:24:32.119Z,9.60
2023-02-06T15:27:20.590Z,4.88
2023-02-06T15:29:53.987Z,7.05
2023-02-06T15:32:34.145Z,6.95
2023-02-06T15:35:02.469Z,11.57
2023-02-06T15:37:35.892Z,5.97
2023-02-06T15:40:18.938Z,14.45
2023-02-06T15:42:49.801Z,7.80
2023-02-06T15:45:25.880Z,7.20
2023-02-06T15:47:56.927Z,10.15
2023-02-06T15:50:28.474Z,11.25
2023-02-06T15:52:55.913Z,6.50
2023-02-06T15:55:33.949Z,8.40
2023-02-06T15:58:03.674Z,5.18
2023-02-06T16:00:37.055Z,9.13
2023-02-06T16:03:15.392Z,6.93
2023-02-06T16:05:43.190Z,11.98
2023-02-06T16:08:17.204Z,7.15
2023-02-06T16:10:53.678Z,12.57
2023-02-06T16:13:26.663Z,10.80
2023-02-06T16:16:06.914Z,14.37
2023-02-06T16:18:36.521Z,12.35
2023-02-06T16:21:29.364Z,12.88
2023-02-06T16:24:02.566Z,12.07
2023-02-06T16:26:31.729Z,9.95
2023-02-06T16:29:03.252Z,7.20
2023-02-06T16:31:33.923Z,10.05
2023-02-06T16:34:03.157Z,13.52
2023-02-06T16:36:32.399Z,22.13
2023-02-06T16:39:04.117Z,8.80
2023-02-06T16:41:40.069Z,11.57
2023-02-06T16:44:12.764Z,8.40
2023-02-06T16:46:39.636Z,14.30
2023-02-06T16:49:12.618Z,13.63
2023-02-06T16:51:43.625Z,8.33
2023-02-06T16:54:27.548Z,13.18
2023-02-06T16:56:57.073Z,12.40
2023-02-06T16:59:25.969Z,8.02
2023-02-06T17:01:52.666Z,10.48
2023-02-06T17:04:19.419Z,9.32
2023-02-06T17:06:48.527Z,11.27
2023-02-06T17:09:17.253Z,9.55
2023-02-06T17:11:48.858Z,11.60
2023-02-06T17:14:15.618Z,15.00
2023-02-06T17:16:42.391Z,14.38
2023-02-06T17:19:11.246Z,21.55
2023-02-06T17:21:38.207Z,14.52
2023-02-06T17:24:05.197Z,15.63
2023-02-06T17:26:31.923Z,9.57
2023-02-06T17:28:58.911Z,11.70
2023-02-06T17:31:25.802Z,12.07
2023-02-06T17:33:55.103Z,8.88
2023-02-06T17:36:29.296Z,15.88
2023-02-06T17:39:00.040Z,13.93
2023-02-06T17:41:30.687Z,10.45
2023-02-06T17:43:57.389Z,11.65
2023-02-06T17:46:24.132Z,14.38
2023-02-06T17:48:50.831Z,15.10
2023-02-06T17:51:17.477Z,11.65
2023-02-06T17:53:47.271Z,10.52
2023-02-06T17:56:14.333Z,13.68
2023-02-06T17:58:42.164Z,17.95
2023-02-06T18:01:16.358Z,19.77
2023-02-06T18:03:48.094Z,21.73
2023-02-06T18:06:15.266Z,17.20
2023-02-06T18:08:45.424Z,12.32
2023-02-06T18:11:14.942Z,14.80
2023-02-06T18:13:42.615Z,13.13
2023-02-06T18:16:14.748Z,12.90
2023-02-06T18:18:41.679Z,12.95
2023-02-06T18:21:08.337Z,14.40
2023-02-06T18:23:35.396Z,15.20
2023-02-06T18:26:04.475Z,16.45
2023-02-06T18:28:32.008Z,16.13
2023-02-06T18:31:02.064Z,13.57
2023-02-06T18:33:30.135Z,19.27
2023-02-06T18:35:59.553Z,15.15
2023-02-06T18:38:28.729Z,15.65
2023-02-06T18:40:57.534Z,12.07
2023-02-06T18:43:27.433Z,19.00
2023-02-06T18:45:54.112Z,15.48
2023-02-06T18:48:20.860Z,14.15
2023-02-06T18:50:47.598Z,17.90
2023-02-06T18:53:16.408Z,12.57
2023-02-06T18:55:43.121Z,18.10
2023-02-06T18:58:09.775Z,19.63
2023-02-06T19:00:37.961Z,15.73
2023-02-06T19:03:05.105Z,15.18
2023-02-06T19:05:35.935Z,13.93
2023-02-06T19:08:05.208Z,17.80
2023-02-06T19:10:32.413Z,19.15
2023-02-06T19:12:59.754Z,20.85
2023-02-06T19:15:30.115Z,17.02
2023-02-06T19:17:56.889Z,14.30
2023-02-06T19:20:23.579Z,17.63
2023-02-06T19:22:51.561Z,17.88
2023-02-06T19:25:23.225Z,18.48
2023-02-06T19:27:49.891Z,15.20
2023-02-06T19:30:16.766Z,15.45
2023-02-06T19:32:43.676Z,22.83
2023-02-06T19:35:11.890Z,15.75
2023-02-06T19:37:40.845Z,18.40
2023-02-06T19:40:07.697Z,12.45
2023-02-06T19:42:34.879Z,15.30
2023-02-06T19:45:01.578Z,19.30
2023-02-06T19:47:28.314Z,19.95
2023-02-06T19:49:55.909Z,18.58
2023-02-06T19:52:22.724Z,19.05
2023-02-06T19:54:49.616Z,19.15
2023-02-06T19:57:19.223Z,19.40
2023-02-06T19:59:45.960Z,19.17
2023-02-06T20:02:16.089Z,13.15
2023-02-06T20:04:46.191Z,12.95
2023-02-06T20:07:12.897Z,18.00
2023-02-06T20:09:41.853Z,17.10
2023-02-06T20:12:14.842Z,18.50
2023-02-06T20:14:41.862Z,21.15
2023-02-06T20:17:11.107Z,12.27
2023-02-06T20:19:37.861Z,14.15
2023-02-06T20:22:06.778Z,17.13
2023-02-06T20:24:33.958Z,15.25
2023-02-06T20:27:02.929Z,12.48
2023-02-06T20:29:36.762Z,12.60
2023-02-06T20:32:04.767Z,14.00
2023-02-06T20:34:31.523Z,9.27
2023-02-06T20:37:01.285Z,11.02
2023-02-06T20:39:28.775Z,12.23
2023-02-06T20:41:57.934Z,9.05
2023-02-06T20:44:27.405Z,5.53
2023-02-06T20:46:54.176Z,9.05
2023-02-06T20:49:26.090Z,8.68
2023-02-06T20:51:53.016Z,7.60
2023-02-06T20:54:20.839Z,10.68
2023-02-06T20:56:47.907Z,9.07
2023-02-06T20:59:16.311Z,7.20
2023-02-06T21:01:43.373Z,9.80
2023-02-06T21:04:14.829Z,12.35
2023-02-06T21:06:42.431Z,8.07
2023-02-06T21:09:10.543Z,11.05
2023-02-06T21:11:41.095Z,7.85
2023-02-06T21:14:08.751Z,5.15
2023-02-06T21:16:38.986Z,6.70
2023-02-06T21:19:08.013Z,6.35
2023-02-06T21:21:35.643Z,8.02
2023-02-06T21:24:02.280Z,10.43
2023-02-06T21:26:29.500Z,7.55
2023-02-06T21:28:59.022Z,7.25
2023-02-06T21:31:36.018Z,7.75
2023-02-06T21:34:09.589Z,7.53
2023-02-06T21:36:38.192Z,8.15
2023-02-06T21:39:05.797Z,9.05
2023-02-06T21:41:32.957Z,6.38
2023-02-06T21:43:59.743Z,10.30
2023-02-06T21:46:26.549Z,7.68
2023-02-06T21:48:54.034Z,8.52
2023-02-06T21:51:21.517Z,9.52
2023-02-06T21:53:51.066Z,8.05
2023-02-06T21:56:24.146Z,9.52
2023-02-06T21:58:51.918Z,10.15
2023-02-06T22:01:24.958Z,10.30
2023-02-06T22:03:55.343Z,7.95
2023-02-06T22:06:25.195Z,12.57
2023-02-06T22:08:53.485Z,11.77
2023-02-06T22:11:29.267Z,12.52
2023-02-06T22:14:01.160Z,13.10
2023-02-06T22:16:28.431Z,8.25
2023-02-06T22:18:55.464Z,7.65
2023-02-06T22:21:24.575Z,9.00
2023-02-06T22:23:52.314Z,7.28
2023-02-06T22:26:20.805Z,9.98
2023-02-06T22:28:48.292Z,7.53
2023-02-06T22:31:23.937Z,6.00
2023-02-06T22:33:53.324Z,7.82
2023-02-06T22:36:23.231Z,9.00
2023-02-06T22:39:00.313Z,9.82
2023-02-06T22:41:29.954Z,8.35
2023-02-06T22:43:56.879Z,9.38
2023-02-06T22:46:27.342Z,5.68
2023-02-06T22:48:55.065Z,8.68
2023-02-06T22:51:22.549Z,10.07
2023-02-06T22:53:49.884Z,9.32
2023-02-06T22:56:36.631Z,12.90
2023-02-06T22:59:10.352Z,8.52
2023-02-06T23:04:07.260Z,9.30
2023-02-06T23:06:35.346Z,6.68
2023-02-06T23:09:04.342Z,8.07
2023-02-06T23:11:31.864Z,10.27
2023-02-06T23:14:02.568Z,7.55
2023-02-06T23:16:31.208Z,9.25
2023-02-06T23:18:58.570Z,6.75
2023-02-06T23:21:27.198Z,6.45
2023-02-06T23:23:56.608Z,7.82
2023-02-06T23:26:26.156Z,8.15
2023-02-06T23:28:55.564Z,5.28
2023-02-06T23:31:25.822Z,7.53
2023-02-06T23:33:53.153Z,6.38
2023-02-06T23:36:25.414Z,6.40
2023-02-06T23:38:55.009Z,6.07
2023-02-06T23:41:28.661Z,7.18
2023-02-06T23:43:58.575Z,7.53
2023-02-06T23:46:26.529Z,5.82
2023-02-06T23:48:55.969Z,8.70
2023-02-06T23:51:24.082Z,7.05
2023-02-06T23:53:51.559Z,6.32
2023-02-06T23:56:21.413Z,8.60
2023-02-06T23:58:48.831Z,6.32
